createdAt,value
2022-12-08T00:04:00.974Z,59.46
2022-12-08T00:09:21.138Z,59.61
2022-12-08T00:14:25.911Z,59.61
2022-12-08T00:19:30.622Z,59.79
2022-12-08T00:24:35.753Z,59.69
2022-12-08T00:29:38.804Z,59.55
2022-12-08T00:34:43.039Z,59.96
2022-12-08T00:39:45.798Z,59.86
2022-12-08T00:44:48.601Z,59.83
2022-12-08T00:49:52.761Z,60.09
2022-12-08T00:54:55.678Z,59.89
2022-12-08T00:59:58.400Z,59.81
2022-12-08T01:05:02.511Z,60.14
2022-12-08T01:10:06.580Z,60.20
2022-12-08T01:15:10.253Z,60.23
2022-12-08T01:20:14.979Z,60.31
2022-12-08T01:25:18.185Z,60.27
2022-12-08T01:30:21.134Z,60.23
2022-12-08T01:35:25.283Z,60.38
2022-12-08T01:40:28.090Z,60.26
2022-12-08T01:45:33.549Z,60.18
2022-12-08T01:50:39.502Z,60.04
2022-12-08T01:55:44.793Z,59.86
2022-12-08T02:00:48.216Z,59.78
2022-12-08T02:05:53.371Z,60.01
2022-12-08T02:10:56.357Z,60.23
2022-12-08T02:16:04.672Z,60.35
2022-12-08T02:21:18.147Z,60.49
2022-12-08T02:27:11.842Z,61.08
2022-12-08T02:32:37.781Z,61.40
2022-12-08T02:37:49.363Z,61.76
2022-12-08T02:42:58.123Z,62.02
2022-12-08T02:48:01.537Z,62.15
2022-12-08T02:58:25.741Z,62.51
2022-12-08T03:03:36.685Z,62.67
2022-12-08T03:08:52.470Z,62.85
2022-12-08T03:14:00.355Z,63.15
2022-12-08T03:19:11.101Z,63.38
2022-12-08T03:24:18.198Z,63.88
2022-12-08T03:29:21.452Z,64.08
2022-12-08T03:34:27.297Z,64.23
2022-12-08T03:39:31.413Z,64.44
2022-12-08T03:44:34.201Z,64.65
2022-12-08T03:49:37.054Z,64.71
2022-12-08T03:54:41.264Z,64.99
2022-12-08T03:59:44.115Z,65.14
2022-12-08T04:04:49.569Z,65.36
2022-12-08T04:09:53.736Z,65.47
2022-12-08T04:14:56.556Z,65.63
2022-12-08T04:19:59.436Z,65.69
2022-12-08T04:25:03.773Z,66.55
2022-12-08T04:30:08.129Z,66.25
2022-12-08T04:35:11.049Z,66.43
2022-12-08T04:40:15.741Z,66.12
2022-12-08T04:45:19.274Z,66.25
2022-12-08T04:50:22.132Z,66.23
2022-12-08T04:55:26.326Z,66.17
2022-12-08T05:00:29.289Z,66.27
2022-12-08T05:05:32.258Z,66.27
2022-12-08T05:10:36.491Z,66.21
2022-12-08T05:15:39.557Z,66.33
2022-12-08T05:20:42.401Z,66.25
2022-12-08T05:25:46.528Z,66.51
2022-12-08T05:30:49.411Z,66.38
2022-12-08T05:35:52.160Z,66.39
2022-12-08T05:40:56.375Z,66.50
2022-12-08T05:45:59.283Z,66.55
2022-12-08T05:51:02.091Z,66.55
2022-12-08T05:56:06.687Z,66.71
2022-12-08T06:01:18.927Z,66.45
2022-12-08T06:06:21.993Z,66.57
2022-12-08T06:11:28.735Z,66.61
2022-12-08T06:16:31.807Z,66.56
2022-12-08T06:21:34.785Z,66.51
2022-12-08T06:26:40.225Z,66.58
2022-12-08T06:31:43.013Z,66.50
2022-12-08T06:36:45.834Z,66.68
2022-12-08T06:42:07.310Z,66.61
2022-12-08T06:47:10.039Z,66.53
2022-12-08T06:52:12.870Z,66.66
2022-12-08T06:57:18.396Z,66.68
2022-12-08T07:02:21.224Z,66.79
2022-12-08T07:07:24.105Z,66.72
2022-12-08T07:12:28.244Z,66.92
2022-12-08T07:17:30.992Z,66.82
2022-12-08T07:22:33.876Z,66.87
2022-12-08T07:27:37.999Z,66.97
2022-12-08T07:32:41.080Z,66.89
2022-12-08T07:37:44.103Z,67.06
2022-12-08T07:42:48.238Z,67.00
2022-12-08T07:47:51.016Z,66.99
2022-12-08T07:52:53.865Z,66.98
2022-12-08T07:57:57.981Z,67.15
2022-12-08T08:03:00.946Z,67.04
2022-12-08T08:08:04.105Z,66.91
2022-12-08T08:13:09.196Z,66.55
2022-12-08T08:18:12.040Z,48.19
2022-12-08T08:23:14.883Z,48.08
2022-12-08T08:28:19.132Z,51.49
2022-12-08T08:33:22.321Z,51.89
2022-12-08T08:38:25.768Z,52.80
2022-12-08T08:43:34.472Z,53.44
2022-12-08T08:48:40.887Z,54.36
2022-12-08T08:53:43.915Z,55.14
2022-12-08T08:58:49.440Z,55.84
2022-12-08T09:03:52.477Z,56.14
2022-12-08T09:08:55.489Z,56.57
2022-12-08T09:13:59.620Z,56.82
2022-12-08T09:19:02.429Z,57.00
2022-12-08T09:24:05.692Z,57.01
2022-12-08T09:29:09.837Z,57.10
2022-12-08T09:34:13.827Z,57.19
2022-12-08T09:39:16.896Z,57.09
2022-12-08T09:44:45.160Z,57.03
2022-12-08T09:49:57.364Z,57.30
2022-12-08T09:55:04.996Z,57.41
2022-12-08T10:00:14.348Z,57.49
2022-12-08T10:05:17.265Z,57.63
2022-12-08T10:10:31.746Z,57.98
2022-12-08T10:15:42.809Z,58.53
2022-12-08T10:20:47.326Z,59.17
2022-12-08T10:25:52.156Z,59.65
2022-12-08T10:30:56.479Z,59.87
2022-12-08T10:36:03.024Z,60.09
2022-12-08T10:41:12.335Z,60.18
2022-12-08T10:46:21.546Z,60.24
2022-12-08T10:51:28.394Z,60.31
2022-12-08T10:56:32.441Z,60.20
2022-12-08T11:01:40.204Z,60.52
2022-12-08T11:06:43.874Z,60.49
2022-12-08T11:11:50.164Z,60.41
2022-12-08T11:16:57.076Z,60.29
2022-12-08T11:22:00.005Z,60.45
2022-12-08T11:27:04.663Z,60.35
2022-12-08T11:32:13.818Z,60.26
2022-12-08T11:37:23.628Z,60.31
2022-12-08T11:42:33.985Z,60.21
2022-12-08T11:47:44.770Z,60.06
2022-12-08T11:52:50.744Z,60.09
2022-12-08T11:57:58.347Z,60.23
2022-12-08T12:03:13.869Z,60.36
2022-12-08T12:08:36.644Z,60.96
2022-12-08T12:13:57.988Z,61.11
2022-12-08T12:19:06.613Z,61.21
2022-12-08T12:24:20.952Z,61.32
2022-12-08T12:29:32.251Z,61.55
2022-12-08T12:34:39.980Z,61.63
2022-12-08T12:39:50.825Z,61.80
2022-12-08T12:45:12.957Z,61.88
2022-12-08T12:50:43.267Z,62.14
2022-12-08T12:55:55.791Z,62.10
2022-12-08T13:01:32.105Z,62.13
2022-12-08T13:06:41.081Z,62.09
2022-12-08T13:11:51.041Z,62.05
2022-12-08T13:16:56.203Z,61.94
2022-12-08T13:22:01.439Z,61.72
2022-12-08T13:27:34.244Z,61.83
2022-12-08T13:38:27.375Z,62.09
2022-12-08T13:43:51.001Z,61.89
2022-12-08T13:59:52.529Z,62.54
2022-12-08T14:10:24.521Z,63.12
2022-12-08T14:15:31.252Z,63.30
2022-12-08T14:20:57.702Z,63.41
2022-12-08T14:26:02.526Z,64.08
2022-12-08T14:31:05.946Z,64.25
2022-12-08T14:36:10.749Z,64.59
2022-12-08T14:41:15.177Z,64.83
2022-12-08T14:46:22.511Z,65.07
2022-12-08T14:51:33.028Z,65.29
2022-12-08T14:56:40.613Z,65.41
2022-12-08T15:01:44.823Z,65.55
2022-12-08T15:06:53.569Z,65.73
2022-12-08T15:12:03.393Z,65.90
2022-12-08T15:17:32.469Z,66.15
2022-12-08T15:22:35.343Z,66.26
2022-12-08T15:27:49.825Z,66.39
2022-12-08T15:32:54.167Z,66.65
2022-12-08T15:37:58.154Z,66.56
2022-12-08T15:43:02.251Z,66.62
2022-12-08T15:48:05.450Z,66.44
2022-12-08T15:53:09.650Z,65.93
2022-12-08T16:04:27.600Z,65.07
2022-12-08T16:09:12.197Z,64.37
2022-12-08T16:15:22.939Z,63.77
2022-12-08T16:19:40.270Z,63.42
2022-12-08T16:24:43.248Z,63.20
2022-12-08T16:29:48.240Z,62.76
2022-12-08T16:34:51.843Z,62.57
2022-12-08T16:39:56.966Z,62.55
2022-12-08T16:45:03.825Z,62.54
2022-12-08T16:50:08.224Z,62.50
2022-12-08T16:55:12.358Z,62.24
2022-12-08T17:00:21.177Z,62.11
2022-12-08T17:05:25.729Z,62.31
2022-12-08T17:10:31.599Z,62.60
2022-12-08T17:15:35.712Z,62.66
2022-12-08T17:20:40.384Z,62.49
2022-12-08T17:25:43.150Z,62.15
2022-12-08T17:30:47.242Z,61.50
2022-12-08T17:35:50.597Z,60.52
2022-12-08T17:40:58.363Z,59.98
2022-12-08T17:46:03.124Z,59.64
2022-12-08T17:51:10.453Z,59.40
2022-12-08T17:56:16.609Z,59.86
2022-12-08T18:01:20.797Z,58.78
2022-12-08T18:06:28.180Z,58.78
2022-12-08T18:11:34.851Z,59.29
2022-12-08T18:16:42.155Z,59.70
2022-12-08T18:21:45.587Z,59.85
2022-12-08T18:26:48.968Z,59.14
2022-12-08T18:31:53.720Z,58.68
2022-12-08T18:36:56.458Z,58.71
2022-12-08T18:42:02.586Z,59.36
2022-12-08T18:47:06.780Z,57.54
2022-12-08T18:52:09.614Z,57.71
2022-12-08T18:57:12.417Z,58.46
2022-12-08T19:02:17.730Z,57.30
2022-12-08T19:07:20.588Z,57.45
2022-12-08T19:12:23.641Z,57.17
2022-12-08T19:17:29.591Z,56.96
2022-12-08T19:22:32.492Z,56.79
2022-12-08T19:27:35.430Z,56.55
2022-12-08T19:32:39.621Z,56.49
2022-12-08T19:37:42.425Z,56.75
2022-12-08T19:43:02.642Z,56.58
2022-12-08T19:48:07.290Z,56.33
2022-12-08T19:53:13.446Z,56.13
2022-12-08T19:58:17.647Z,56.08
2022-12-08T20:03:23.170Z,56.10
2022-12-08T20:08:26.139Z,55.90
2022-12-08T20:13:45.751Z,55.91
2022-12-08T20:18:49.962Z,55.55
2022-12-08T20:23:52.863Z,55.53
2022-12-08T20:28:55.712Z,55.61
2022-12-08T20:33:59.940Z,55.49
2022-12-08T20:39:02.697Z,55.41
2022-12-08T20:44:06.932Z,55.27
2022-12-08T20:49:11.353Z,55.29
2022-12-08T20:54:14.427Z,55.12
2022-12-08T20:59:18.291Z,55.24
2022-12-08T21:04:23.948Z,54.97
2022-12-08T21:09:27.170Z,55.05
2022-12-08T21:14:30.339Z,55.03
2022-12-08T21:19:34.731Z,54.95
2022-12-08T21:24:38.446Z,54.87
2022-12-08T21:29:41.192Z,54.78
2022-12-08T21:34:45.612Z,54.66
2022-12-08T21:39:48.659Z,54.71
2022-12-08T21:44:51.549Z,54.58
2022-12-08T21:49:55.743Z,55.05
2022-12-08T21:54:58.710Z,56.40
2022-12-08T22:00:01.701Z,56.67
2022-12-08T22:05:09.567Z,56.79
2022-12-08T22:10:12.774Z,56.91
2022-12-08T22:15:16.387Z,57.22
2022-12-08T22:20:20.719Z,57.31
2022-12-08T22:25:23.768Z,57.24
2022-12-08T22:30:26.591Z,57.44
2022-12-08T22:35:30.814Z,57.46
2022-12-08T22:40:33.677Z,57.50
2022-12-08T22:45:36.560Z,57.46
2022-12-08T22:50:41.777Z,57.44
2022-12-08T22:55:46.552Z,57.71
2022-12-08T23:00:49.615Z,57.80
2022-12-08T23:05:54.024Z,58.09
2022-12-08T23:10:56.912Z,58.12
2022-12-08T23:15:59.678Z,58.33
2022-12-08T23:21:09.143Z,58.36
